sensor_id;sensor_type;location;lat;lon;timestamp;temperature;humidity
810;DHT22;387;48.772;9.186;2023-03-24T00:00:45;14.70;73.90
810;DHT22;387;48.772;9.186;2023-03-24T00:03:11;14.60;72.70
810;DHT22;387;48.772;9.186;2023-03-24T00:05:37;14.70;73.50
810;DHT22;387;48.772;9.186;2023-03-24T00:08:03;14.70;72.60
810;DHT22;387;48.772;9.186;2023-03-24T00:10:30;14.70;72.60
810;DHT22;387;48.772;9.186;2023-03-24T00:12:59;14.70;72.70
810;DHT22;387;48.772;9.186;2023-03-24T00:15:26;14.70;72.90
810;DHT22;387;48.772;9.186;2023-03-24T00:17:52;14.70;72.60
810;DHT22;387;48.772;9.186;2023-03-24T00:20:21;14.60;72.60
810;DHT22;387;48.772;9.186;2023-03-24T00:22:49;14.50;73.20
810;DHT22;387;48.772;9.186;2023-03-24T00:25:17;14.50;73.60
810;DHT22;387;48.772;9.186;2023-03-24T00:27:43;14.50;74.00
810;DHT22;387;48.772;9.186;2023-03-24T00:30:10;14.50;74.00
810;DHT22;387;48.772;9.186;2023-03-24T00:32:37;14.40;74.30
810;DHT22;387;48.772;9.186;2023-03-24T00:35:07;14.40;74.50
810;DHT22;387;48.772;9.186;2023-03-24T00:37:35;14.40;74.50
810;DHT22;387;48.772;9.186;2023-03-24T00:40:06;14.40;74.00
810;DHT22;387;48.772;9.186;2023-03-24T00:42:34;14.50;71.60
810;DHT22;387;48.772;9.186;2023-03-24T00:45:02;14.50;72.60
810;DHT22;387;48.772;9.186;2023-03-24T00:47:28;14.50;72.10
810;DHT22;387;48.772;9.186;2023-03-24T00:49:54;14.60;70.70
810;DHT22;387;48.772;9.186;2023-03-24T00:52:23;14.60;71.10
810;DHT22;387;48.772;9.186;2023-03-24T00:54:52;14.80;70.20
810;DHT22;387;48.772;9.186;2023-03-24T00:57:22;14.80;71.70
810;DHT22;387;48.772;9.186;2023-03-24T00:59:52;14.70;71.30
810;DHT22;387;48.772;9.186;2023-03-24T01:02:21;14.70;71.00
810;DHT22;387;48.772;9.186;2023-03-24T01:04:55;14.70;71.70
810;DHT22;387;48.772;9.186;2023-03-24T01:07:23;14.70;71.30
810;DHT22;387;48.772;9.186;2023-03-24T01:09:49;14.70;70.10
810;DHT22;387;48.772;9.186;2023-03-24T01:12:34;14.80;70.50
810;DHT22;387;48.772;9.186;2023-03-24T01:15:06;14.70;70.80
810;DHT22;387;48.772;9.186;2023-03-24T01:17:32;14.70;71.10
810;DHT22;387;48.772;9.186;2023-03-24T01:19:59;14.80;70.20
810;DHT22;387;48.772;9.186;2023-03-24T01:22:29;14.70;71.10
810;DHT22;387;48.772;9.186;2023-03-24T01:24:55;14.60;71.60
810;DHT22;387;48.772;9.186;2023-03-24T01:27:21;14.50;71.70
810;DHT22;387;48.772;9.186;2023-03-24T01:29:47;14.50;71.40
810;DHT22;387;48.772;9.186;2023-03-24T01:32:13;14.50;71.10
810;DHT22;387;48.772;9.186;2023-03-24T01:34:38;14.50;72.10
810;DHT22;387;48.772;9.186;2023-03-24T01:37:04;14.50;72.10
810;DHT22;387;48.772;9.186;2023-03-24T01:39:30;14.40;72.40
810;DHT22;387;48.772;9.186;2023-03-24T01:41:56;14.40;72.10
810;DHT22;387;48.772;9.186;2023-03-24T01:44:33;14.40;72.10
810;DHT22;387;48.772;9.186;2023-03-24T01:47:00;14.40;72.10
810;DHT22;387;48.772;9.186;2023-03-24T01:49:31;14.30;72.00
810;DHT22;387;48.772;9.186;2023-03-24T01:52:02;14.20;72.10
810;DHT22;387;48.772;9.186;2023-03-24T01:54:40;14.20;72.30
810;DHT22;387;48.772;9.186;2023-03-24T01:59:45;14.10;72.30
810;DHT22;387;48.772;9.186;2023-03-24T02:02:11;14.10;72.30
810;DHT22;387;48.772;9.186;2023-03-24T02:04:43;14.00;72.40
810;DHT22;387;48.772;9.186;2023-03-24T02:07:33;14.00;72.60
810;DHT22;387;48.772;9.186;2023-03-24T02:10:03;14.10;72.40
810;DHT22;387;48.772;9.186;2023-03-24T02:12:30;14.10;72.90
810;DHT22;387;48.772;9.186;2023-03-24T02:14:56;14.10;72.30
810;DHT22;387;48.772;9.186;2023-03-24T02:32:28;14.20;71.70
810;DHT22;387;48.772;9.186;2023-03-24T02:35:36;14.20;71.70
810;DHT22;387;48.772;9.186;2023-03-24T02:38:17;14.10;71.70
810;DHT22;387;48.772;9.186;2023-03-24T02:40:59;14.10;71.80
810;DHT22;387;48.772;9.186;2023-03-24T02:46:33;14.00;71.80
810;DHT22;387;48.772;9.186;2023-03-24T02:52:17;14.10;71.40
810;DHT22;387;48.772;9.186;2023-03-24T03:00:07;14.80;68.80
810;DHT22;387;48.772;9.186;2023-03-24T03:02:40;15.00;68.30
810;DHT22;387;48.772;9.186;2023-03-24T03:05:14;15.10;68.20
810;DHT22;387;48.772;9.186;2023-03-24T03:07:42;15.20;67.90
810;DHT22;387;48.772;9.186;2023-03-24T03:10:14;15.30;67.70
810;DHT22;387;48.772;9.186;2023-03-24T03:12:42;15.30;67.90
810;DHT22;387;48.772;9.186;2023-03-24T03:15:17;15.30;67.70
810;DHT22;387;48.772;9.186;2023-03-24T03:18:08;15.20;67.90
810;DHT22;387;48.772;9.186;2023-03-24T03:20:41;15.20;68.00
810;DHT22;387;48.772;9.186;2023-03-24T03:23:22;15.20;68.00
810;DHT22;387;48.772;9.186;2023-03-24T03:25:53;15.20;68.30
810;DHT22;387;48.772;9.186;2023-03-24T03:28:22;15.20;67.90
810;DHT22;387;48.772;9.186;2023-03-24T03:30:56;15.30;67.90
810;DHT22;387;48.772;9.186;2023-03-24T03:33:29;15.30;67.70
810;DHT22;387;48.772;9.186;2023-03-24T03:36:09;15.30;67.50
810;DHT22;387;48.772;9.186;2023-03-24T03:41:23;15.40;66.90
810;DHT22;387;48.772;9.186;2023-03-24T03:43:49;15.40;66.60
810;DHT22;387;48.772;9.186;2023-03-24T03:46:15;15.50;66.90
810;DHT22;387;48.772;9.186;2023-03-24T03:48:42;15.40;66.70
810;DHT22;387;48.772;9.186;2023-03-24T03:51:09;15.50;66.70
810;DHT22;387;48.772;9.186;2023-03-24T03:56:11;15.40;66.90
810;DHT22;387;48.772;9.186;2023-03-24T03:58:37;15.30;67.20
810;DHT22;387;48.772;9.186;2023-03-24T04:01:04;15.40;66.90
810;DHT22;387;48.772;9.186;2023-03-24T04:03:55;15.30;67.00
810;DHT22;387;48.772;9.186;2023-03-24T04:20:07;15.30;67.00
810;DHT22;387;48.772;9.186;2023-03-24T04:22:59;15.40;66.60
810;DHT22;387;48.772;9.186;2023-03-24T04:25:53;15.40;66.70
810;DHT22;387;48.772;9.186;2023-03-24T04:33:50;15.30;66.70
810;DHT22;387;48.772;9.186;2023-03-24T04:36:36;15.30;66.90
810;DHT22;387;48.772;9.186;2023-03-24T04:39:12;15.40;66.60
810;DHT22;387;48.772;9.186;2023-03-24T04:41:40;15.50;66.30
810;DHT22;387;48.772;9.186;2023-03-24T04:44:08;15.50;66.40
810;DHT22;387;48.772;9.186;2023-03-24T04:46:35;15.50;66.30
810;DHT22;387;48.772;9.186;2023-03-24T04:49:02;15.50;66.40
810;DHT22;387;48.772;9.186;2023-03-24T04:51:28;15.50;66.40
810;DHT22;387;48.772;9.186;2023-03-24T04:53:53;15.50;66.40
810;DHT22;387;48.772;9.186;2023-03-24T04:56:53;15.50;66.40
810;DHT22;387;48.772;9.186;2023-03-24T04:59:19;15.60;66.60
810;DHT22;387;48.772;9.186;2023-03-24T05:01:46;15.60;66.70
810;DHT22;387;48.772;9.186;2023-03-24T05:04:25;15.60;66.90
810;DHT22;387;48.772;9.186;2023-03-24T05:06:51;15.60;67.00
810;DHT22;387;48.772;9.186;2023-03-24T05:09:19;15.60;67.20
810;DHT22;387;48.772;9.186;2023-03-24T05:11:46;15.60;67.30
810;DHT22;387;48.772;9.186;2023-03-24T05:14:12;15.60;67.50
810;DHT22;387;48.772;9.186;2023-03-24T05:16:37;15.70;67.60
810;DHT22;387;48.772;9.186;2023-03-24T05:19:03;15.70;67.70
810;DHT22;387;48.772;9.186;2023-03-24T05:21:29;15.70;67.90
810;DHT22;387;48.772;9.186;2023-03-24T05:23:55;15.70;68.00
810;DHT22;387;48.772;9.186;2023-03-24T05:26:20;15.70;68.20
810;DHT22;387;48.772;9.186;2023-03-24T05:28:46;15.70;68.50
810;DHT22;387;48.772;9.186;2023-03-24T05:31:12;15.70;68.90
810;DHT22;387;48.772;9.186;2023-03-24T05:33:37;15.60;69.90
810;DHT22;387;48.772;9.186;2023-03-24T05:36:03;15.50;71.10
810;DHT22;387;48.772;9.186;2023-03-24T05:38:29;15.30;71.60
810;DHT22;387;48.772;9.186;2023-03-24T05:40:59;15.20;72.00
810;DHT22;387;48.772;9.186;2023-03-24T05:43:25;15.10;72.90
810;DHT22;387;48.772;9.186;2023-03-24T05:45:51;15.00;73.00
810;DHT22;387;48.772;9.186;2023-03-24T05:48:17;14.90;73.70
810;DHT22;387;48.772;9.186;2023-03-24T05:50:43;14.80;73.90
810;DHT22;387;48.772;9.186;2023-03-24T05:53:08;14.80;73.90
810;DHT22;387;48.772;9.186;2023-03-24T05:55:34;14.80;74.30
810;DHT22;387;48.772;9.186;2023-03-24T05:58:00;14.80;74.60
810;DHT22;387;48.772;9.186;2023-03-24T06:00:27;14.70;74.90
810;DHT22;387;48.772;9.186;2023-03-24T06:02:54;14.70;75.10
810;DHT22;387;48.772;9.186;2023-03-24T06:05:21;14.70;75.50
810;DHT22;387;48.772;9.186;2023-03-24T06:07:46;14.60;75.90
810;DHT22;387;48.772;9.186;2023-03-24T06:10:12;14.60;76.20
810;DHT22;387;48.772;9.186;2023-03-24T06:12:39;14.60;76.50
810;DHT22;387;48.772;9.186;2023-03-24T06:15:06;14.60;77.00
810;DHT22;387;48.772;9.186;2023-03-24T06:17:32;14.50;77.10
810;DHT22;387;48.772;9.186;2023-03-24T06:19:59;14.50;77.40
810;DHT22;387;48.772;9.186;2023-03-24T06:22:36;14.50;77.60
810;DHT22;387;48.772;9.186;2023-03-24T06:25:03;14.60;77.70
810;DHT22;387;48.772;9.186;2023-03-24T06:27:28;14.60;77.70
810;DHT22;387;48.772;9.186;2023-03-24T06:29:58;14.40;78.00
810;DHT22;387;48.772;9.186;2023-03-24T06:32:24;14.40;78.60
810;DHT22;387;48.772;9.186;2023-03-24T06:34:50;14.50;78.40
810;DHT22;387;48.772;9.186;2023-03-24T06:37:16;14.60;78.10
810;DHT22;387;48.772;9.186;2023-03-24T06:39:41;14.60;78.10
810;DHT22;387;48.772;9.186;2023-03-24T06:42:07;14.60;78.30
810;DHT22;387;48.772;9.186;2023-03-24T06:44:33;14.60;78.60
810;DHT22;387;48.772;9.186;2023-03-24T06:46:58;14.60;78.60
810;DHT22;387;48.772;9.186;2023-03-24T06:49:24;14.60;78.40
810;DHT22;387;48.772;9.186;2023-03-24T06:51:49;14.70;78.60
810;DHT22;387;48.772;9.186;2023-03-24T06:54:16;14.70;78.60
810;DHT22;387;48.772;9.186;2023-03-24T06:56:42;14.70;77.80
810;DHT22;387;48.772;9.186;2023-03-24T06:59:07;14.60;77.60
810;DHT22;387;48.772;9.186;2023-03-24T07:01:33;14.40;78.00
810;DHT22;387;48.772;9.186;2023-03-24T07:04:00;14.30;78.60
810;DHT22;387;48.772;9.186;2023-03-24T07:06:26;14.20;79.20
810;DHT22;387;48.772;9.186;2023-03-24T07:08:54;14.20;79.60
810;DHT22;387;48.772;9.186;2023-03-24T07:11:19;14.20;79.90
810;DHT22;387;48.772;9.186;2023-03-24T07:13:45;14.20;80.30
810;DHT22;387;48.772;9.186;2023-03-24T07:16:11;14.20;80.50
810;DHT22;387;48.772;9.186;2023-03-24T07:18:36;14.00;81.40
810;DHT22;387;48.772;9.186;2023-03-24T07:21:02;14.00;82.40
810;DHT22;387;48.772;9.186;2023-03-24T07:23:28;13.90;83.10
810;DHT22;387;48.772;9.186;2023-03-24T07:25:54;13.80;83.80
810;DHT22;387;48.772;9.186;2023-03-24T07:28:20;13.70;84.90
810;DHT22;387;48.772;9.186;2023-03-24T07:30:46;13.50;85.90
810;DHT22;387;48.772;9.186;2023-03-24T07:33:11;13.40;86.50
810;DHT22;387;48.772;9.186;2023-03-24T07:35:38;13.30;87.10
810;DHT22;387;48.772;9.186;2023-03-24T07:38:04;13.20;88.10
810;DHT22;387;48.772;9.186;2023-03-24T07:40:30;13.20;88.70
810;DHT22;387;48.772;9.186;2023-03-24T07:42:59;13.10;89.00
810;DHT22;387;48.772;9.186;2023-03-24T07:45:25;13.10;89.30
810;DHT22;387;48.772;9.186;2023-03-24T07:47:52;13.00;89.60
810;DHT22;387;48.772;9.186;2023-03-24T07:50:18;13.00;90.00
810;DHT22;387;48.772;9.186;2023-03-24T07:52:47;13.00;89.90
810;DHT22;387;48.772;9.186;2023-03-24T07:55:13;13.00;90.30
810;DHT22;387;48.772;9.186;2023-03-24T07:57:41;12.90;90.20
810;DHT22;387;48.772;9.186;2023-03-24T08:00:08;12.90;90.50
810;DHT22;387;48.772;9.186;2023-03-24T08:02:43;12.90;90.70
810;DHT22;387;48.772;9.186;2023-03-24T08:05:09;12.90;90.80
810;DHT22;387;48.772;9.186;2023-03-24T08:07:39;12.90;90.90
810;DHT22;387;48.772;9.186;2023-03-24T08:10:08;12.90;91.10
810;DHT22;387;48.772;9.186;2023-03-24T08:12:34;12.90;91.00
810;DHT22;387;48.772;9.186;2023-03-24T08:14:59;12.90;91.00
810;DHT22;387;48.772;9.186;2023-03-24T08:17:25;13.00;91.00
810;DHT22;387;48.772;9.186;2023-03-24T08:19:51;13.00;91.10
810;DHT22;387;48.772;9.186;2023-03-24T08:22:16;13.00;91.10
810;DHT22;387;48.772;9.186;2023-03-24T08:24:42;13.00;91.10
810;DHT22;387;48.772;9.186;2023-03-24T08:27:07;13.10;91.20
810;DHT22;387;48.772;9.186;2023-03-24T08:29:33;13.10;91.10
810;DHT22;387;48.772;9.186;2023-03-24T08:31:59;13.10;90.90
810;DHT22;387;48.772;9.186;2023-03-24T08:34:25;13.10;90.70
810;DHT22;387;48.772;9.186;2023-03-24T08:36:51;13.20;90.60
810;DHT22;387;48.772;9.186;2023-03-24T08:39:17;13.20;90.00
810;DHT22;387;48.772;9.186;2023-03-24T08:41:42;13.20;89.60
810;DHT22;387;48.772;9.186;2023-03-24T08:44:09;13.30;89.70
810;DHT22;387;48.772;9.186;2023-03-24T08:46:36;13.30;89.30
810;DHT22;387;48.772;9.186;2023-03-24T08:49:02;13.40;89.20
810;DHT22;387;48.772;9.186;2023-03-24T08:51:28;13.50;88.90
810;DHT22;387;48.772;9.186;2023-03-24T08:53:54;13.50;88.30
810;DHT22;387;48.772;9.186;2023-03-24T08:56:20;13.60;88.40
810;DHT22;387;48.772;9.186;2023-03-24T08:58:46;13.60;88.30
810;DHT22;387;48.772;9.186;2023-03-24T09:01:21;13.80;88.40
810;DHT22;387;48.772;9.186;2023-03-24T09:03:47;13.80;87.70
810;DHT22;387;48.772;9.186;2023-03-24T09:06:13;14.00;87.00
810;DHT22;387;48.772;9.186;2023-03-24T09:08:39;14.10;86.50
810;DHT22;387;48.772;9.186;2023-03-24T09:11:05;14.00;85.70
810;DHT22;387;48.772;9.186;2023-03-24T09:13:31;14.00;85.90
810;DHT22;387;48.772;9.186;2023-03-24T09:16:01;14.10;85.90
810;DHT22;387;48.772;9.186;2023-03-24T09:18:27;14.10;85.00
810;DHT22;387;48.772;9.186;2023-03-24T09:20:53;14.20;85.00
810;DHT22;387;48.772;9.186;2023-03-24T09:23:19;14.20;84.90
810;DHT22;387;48.772;9.186;2023-03-24T09:25:48;14.30;84.70
810;DHT22;387;48.772;9.186;2023-03-24T09:28:13;14.40;84.40
810;DHT22;387;48.772;9.186;2023-03-24T09:30:40;14.40;84.00
810;DHT22;387;48.772;9.186;2023-03-24T09:33:06;14.50;83.70
810;DHT22;387;48.772;9.186;2023-03-24T09:35:32;14.50;83.10
810;DHT22;387;48.772;9.186;2023-03-24T09:37:57;14.60;81.90
810;DHT22;387;48.772;9.186;2023-03-24T09:40:29;14.50;81.80
810;DHT22;387;48.772;9.186;2023-03-24T09:43:08;14.60;81.90
810;DHT22;387;48.772;9.186;2023-03-24T09:45:50;14.60;81.50
810;DHT22;387;48.772;9.186;2023-03-24T09:48:43;14.80;80.50
810;DHT22;387;48.772;9.186;2023-03-24T09:51:26;14.90;79.90
810;DHT22;387;48.772;9.186;2023-03-24T09:54:13;15.10;79.70
810;DHT22;387;48.772;9.186;2023-03-24T09:56:43;15.10;78.90
810;DHT22;387;48.772;9.186;2023-03-24T09:59:38;15.10;79.00
810;DHT22;387;48.772;9.186;2023-03-24T10:02:14;15.10;79.30
810;DHT22;387;48.772;9.186;2023-03-24T10:04:40;15.20;79.00
810;DHT22;387;48.772;9.186;2023-03-24T10:07:31;15.20;78.40
810;DHT22;387;48.772;9.186;2023-03-24T10:10:00;15.40;78.30
810;DHT22;387;48.772;9.186;2023-03-24T10:12:35;15.60;77.00
810;DHT22;387;48.772;9.186;2023-03-24T10:15:25;15.80;76.80
810;DHT22;387;48.772;9.186;2023-03-24T10:21:16;16.00;74.20
810;DHT22;387;48.772;9.186;2023-03-24T10:29:23;16.20;74.60
810;DHT22;387;48.772;9.186;2023-03-24T10:31:53;16.30;73.90
810;DHT22;387;48.772;9.186;2023-03-24T10:34:22;16.40;73.50
810;DHT22;387;48.772;9.186;2023-03-24T10:36:50;16.60;72.40
810;DHT22;387;48.772;9.186;2023-03-24T10:39:16;16.50;72.00
810;DHT22;387;48.772;9.186;2023-03-24T10:41:43;16.60;72.00
810;DHT22;387;48.772;9.186;2023-03-24T10:44:11;16.60;71.30
810;DHT22;387;48.772;9.186;2023-03-24T10:46:44;16.50;70.80
810;DHT22;387;48.772;9.186;2023-03-24T10:51:36;16.50;69.50
810;DHT22;387;48.772;9.186;2023-03-24T10:54:11;16.50;70.10
810;DHT22;387;48.772;9.186;2023-03-24T10:56:42;16.50;69.90
810;DHT22;387;48.772;9.186;2023-03-24T10:59:38;16.40;69.70
810;DHT22;387;48.772;9.186;2023-03-24T11:02:18;16.30;70.10
810;DHT22;387;48.772;9.186;2023-03-24T11:05:15;16.40;70.40
810;DHT22;387;48.772;9.186;2023-03-24T11:07:44;16.60;69.90
810;DHT22;387;48.772;9.186;2023-03-24T11:13:03;16.60;68.90
810;DHT22;387;48.772;9.186;2023-03-24T11:15:33;16.50;69.10
810;DHT22;387;48.772;9.186;2023-03-24T11:20:43;16.70;68.90
810;DHT22;387;48.772;9.186;2023-03-24T11:23:30;16.80;68.60
810;DHT22;387;48.772;9.186;2023-03-24T11:26:14;16.90;68.60
810;DHT22;387;48.772;9.186;2023-03-24T11:28:49;17.10;67.50
810;DHT22;387;48.772;9.186;2023-03-24T11:31:28;17.20;67.00
810;DHT22;387;48.772;9.186;2023-03-24T11:33:59;17.30;66.60
810;DHT22;387;48.772;9.186;2023-03-24T11:39:27;17.20;67.60
810;DHT22;387;48.772;9.186;2023-03-24T11:42:12;17.40;67.00
810;DHT22;387;48.772;9.186;2023-03-24T11:44:43;17.00;67.20
810;DHT22;387;48.772;9.186;2023-03-24T11:47:28;16.80;67.50
810;DHT22;387;48.772;9.186;2023-03-24T11:50:16;16.70;67.50
810;DHT22;387;48.772;9.186;2023-03-24T11:53:09;16.60;67.70
810;DHT22;387;48.772;9.186;2023-03-24T11:58:45;16.50;67.70
810;DHT22;387;48.772;9.186;2023-03-24T12:09:20;16.30;66.60
810;DHT22;387;48.772;9.186;2023-03-24T12:17:51;16.30;67.00
810;DHT22;387;48.772;9.186;2023-03-24T12:23:04;16.30;66.40
810;DHT22;387;48.772;9.186;2023-03-24T12:31:32;16.20;66.40
810;DHT22;387;48.772;9.186;2023-03-24T12:39:33;16.00;67.00
810;DHT22;387;48.772;9.186;2023-03-24T12:42:10;16.20;66.70
810;DHT22;387;48.772;9.186;2023-03-24T12:56:38;16.30;67.50
810;DHT22;387;48.772;9.186;2023-03-24T12:59:09;16.40;67.60
810;DHT22;387;48.772;9.186;2023-03-24T13:01:43;16.20;67.90
810;DHT22;387;48.772;9.186;2023-03-24T13:04:19;16.10;68.30
810;DHT22;387;48.772;9.186;2023-03-24T13:07:04;16.00;68.60
810;DHT22;387;48.772;9.186;2023-03-24T13:09:49;16.10;68.80
810;DHT22;387;48.772;9.186;2023-03-24T13:17:48;16.50;67.70
810;DHT22;387;48.772;9.186;2023-03-24T13:20:27;16.30;68.20
810;DHT22;387;48.772;9.186;2023-03-24T13:22:54;16.30;68.60
810;DHT22;387;48.772;9.186;2023-03-24T13:25:33;16.10;68.80
810;DHT22;387;48.772;9.186;2023-03-24T13:28:09;16.10;68.90
810;DHT22;387;48.772;9.186;2023-03-24T13:30:41;16.00;69.40
810;DHT22;387;48.772;9.186;2023-03-24T13:33:24;16.00;68.90
810;DHT22;387;48.772;9.186;2023-03-24T13:36:10;15.80;69.40
810;DHT22;387;48.772;9.186;2023-03-24T13:38:45;15.80;69.50
810;DHT22;387;48.772;9.186;2023-03-24T13:41:19;15.80;69.40
810;DHT22;387;48.772;9.186;2023-03-24T13:43:49;15.70;69.20
810;DHT22;387;48.772;9.186;2023-03-24T13:46:16;15.60;69.50
810;DHT22;387;48.772;9.186;2023-03-24T13:48:50;15.70;69.50
810;DHT22;387;48.772;9.186;2023-03-24T13:51:32;15.70;69.40
810;DHT22;387;48.772;9.186;2023-03-24T13:54:11;15.80;69.20
810;DHT22;387;48.772;9.186;2023-03-24T13:56:38;15.70;69.70
810;DHT22;387;48.772;9.186;2023-03-24T14:04:47;16.00;68.90
810;DHT22;387;48.772;9.186;2023-03-24T14:15:36;16.30;67.90
810;DHT22;387;48.772;9.186;2023-03-24T14:23:41;16.40;68.20
810;DHT22;387;48.772;9.186;2023-03-24T14:28:51;15.50;71.70
810;DHT22;387;48.772;9.186;2023-03-24T14:31:20;15.20;74.00
810;DHT22;387;48.772;9.186;2023-03-24T14:34:16;14.40;75.50
810;DHT22;387;48.772;9.186;2023-03-24T14:36:45;14.00;78.00
810;DHT22;387;48.772;9.186;2023-03-24T14:41:47;13.70;81.40
810;DHT22;387;48.772;9.186;2023-03-24T14:47:29;13.70;83.40
810;DHT22;387;48.772;9.186;2023-03-24T14:49:58;13.50;81.50
810;DHT22;387;48.772;9.186;2023-03-24T14:52:26;13.20;83.00
810;DHT22;387;48.772;9.186;2023-03-24T14:55:11;13.10;84.10
810;DHT22;387;48.772;9.186;2023-03-24T14:57:40;13.00;84.90
810;DHT22;387;48.772;9.186;2023-03-24T15:00:26;12.90;85.50
810;DHT22;387;48.772;9.186;2023-03-24T15:06:13;12.70;86.00
810;DHT22;387;48.772;9.186;2023-03-24T15:08:48;12.70;86.30
810;DHT22;387;48.772;9.186;2023-03-24T15:11:18;12.60;86.90
810;DHT22;387;48.772;9.186;2023-03-24T15:13:54;12.60;87.60
810;DHT22;387;48.772;9.186;2023-03-24T15:21:55;12.10;90.20
810;DHT22;387;48.772;9.186;2023-03-24T15:26:46;12.10;91.30
810;DHT22;387;48.772;9.186;2023-03-24T15:29:11;12.10;91.50
810;DHT22;387;48.772;9.186;2023-03-24T15:31:37;12.00;91.30
810;DHT22;387;48.772;9.186;2023-03-24T15:34:48;11.90;91.30
810;DHT22;387;48.772;9.186;2023-03-24T15:36:57;11.80;91.50
810;DHT22;387;48.772;9.186;2023-03-24T15:39:34;11.90;91.90
810;DHT22;387;48.772;9.186;2023-03-24T15:42:04;11.90;92.20
810;DHT22;387;48.772;9.186;2023-03-24T15:44:30;12.00;92.20
810;DHT22;387;48.772;9.186;2023-03-24T15:47:01;12.00;92.30
810;DHT22;387;48.772;9.186;2023-03-24T15:49:32;12.10;92.10
810;DHT22;387;48.772;9.186;2023-03-24T15:52:22;12.00;91.00
810;DHT22;387;48.772;9.186;2023-03-24T15:54:49;12.10;90.60
810;DHT22;387;48.772;9.186;2023-03-24T15:57:18;12.10;90.40
810;DHT22;387;48.772;9.186;2023-03-24T16:02:39;12.10;88.70
810;DHT22;387;48.772;9.186;2023-03-24T16:05:30;12.20;88.10
810;DHT22;387;48.772;9.186;2023-03-24T16:08:07;12.30;87.30
810;DHT22;387;48.772;9.186;2023-03-24T16:11:09;12.30;86.80
810;DHT22;387;48.772;9.186;2023-03-24T16:13:37;12.40;86.30
810;DHT22;387;48.772;9.186;2023-03-24T16:16:35;12.40;86.50
810;DHT22;387;48.772;9.186;2023-03-24T16:18:56;12.50;86.20
810;DHT22;387;48.772;9.186;2023-03-24T16:21:25;12.50;85.60
810;DHT22;387;48.772;9.186;2023-03-24T16:23:53;12.50;85.50
810;DHT22;387;48.772;9.186;2023-03-24T16:26:24;12.50;85.50
810;DHT22;387;48.772;9.186;2023-03-24T16:28:51;12.60;85.30
810;DHT22;387;48.772;9.186;2023-03-24T16:31:21;12.60;85.20
810;DHT22;387;48.772;9.186;2023-03-24T16:33:49;12.60;84.40
810;DHT22;387;48.772;9.186;2023-03-24T16:36:15;12.70;84.40
810;DHT22;387;48.772;9.186;2023-03-24T16:38:46;12.70;84.60
810;DHT22;387;48.772;9.186;2023-03-24T16:41:13;12.70;84.90
810;DHT22;387;48.772;9.186;2023-03-24T16:43:40;12.80;84.90
810;DHT22;387;48.772;9.186;2023-03-24T16:46:10;12.90;84.70
810;DHT22;387;48.772;9.186;2023-03-24T16:48:37;12.90;84.10
810;DHT22;387;48.772;9.186;2023-03-24T16:51:03;13.00;84.00
810;DHT22;387;48.772;9.186;2023-03-24T16:53:29;13.00;83.60
810;DHT22;387;48.772;9.186;2023-03-24T16:55:54;13.10;82.20
810;DHT22;387;48.772;9.186;2023-03-24T16:58:20;13.10;81.80
810;DHT22;387;48.772;9.186;2023-03-24T17:00:45;13.10;81.70
810;DHT22;387;48.772;9.186;2023-03-24T17:03:13;13.10;81.80
810;DHT22;387;48.772;9.186;2023-03-24T17:05:47;13.10;81.50
810;DHT22;387;48.772;9.186;2023-03-24T17:08:17;13.00;81.70
810;DHT22;387;48.772;9.186;2023-03-24T17:10:44;12.90;81.90
810;DHT22;387;48.772;9.186;2023-03-24T17:13:20;12.90;81.90
810;DHT22;387;48.772;9.186;2023-03-24T17:15:46;12.90;81.80
810;DHT22;387;48.772;9.186;2023-03-24T17:18:11;12.90;81.90
810;DHT22;387;48.772;9.186;2023-03-24T17:20:37;12.80;82.40
810;DHT22;387;48.772;9.186;2023-03-24T17:23:07;12.90;82.70
810;DHT22;387;48.772;9.186;2023-03-24T17:25:33;12.80;82.40
810;DHT22;387;48.772;9.186;2023-03-24T17:28:02;12.80;81.80
810;DHT22;387;48.772;9.186;2023-03-24T17:30:28;12.80;81.70
810;DHT22;387;48.772;9.186;2023-03-24T17:32:54;12.80;81.50
810;DHT22;387;48.772;9.186;2023-03-24T17:35:22;12.80;80.80
810;DHT22;387;48.772;9.186;2023-03-24T17:37:48;12.80;80.80
810;DHT22;387;48.772;9.186;2023-03-24T17:40:17;12.70;80.50
810;DHT22;387;48.772;9.186;2023-03-24T17:42:44;12.70;80.30
810;DHT22;387;48.772;9.186;2023-03-24T17:45:15;12.60;80.20
810;DHT22;387;48.772;9.186;2023-03-24T17:47:41;12.60;80.30
810;DHT22;387;48.772;9.186;2023-03-24T17:50:07;12.50;80.50
810;DHT22;387;48.772;9.186;2023-03-24T17:52:44;12.50;80.20
810;DHT22;387;48.772;9.186;2023-03-24T17:55:11;12.40;80.00
810;DHT22;387;48.772;9.186;2023-03-24T17:57:37;12.40;80.30
810;DHT22;387;48.772;9.186;2023-03-24T18:00:04;12.30;80.00
810;DHT22;387;48.772;9.186;2023-03-24T18:02:32;12.30;80.00
810;DHT22;387;48.772;9.186;2023-03-24T18:04:57;12.30;79.90
810;DHT22;387;48.772;9.186;2023-03-24T18:07:23;12.30;79.90
810;DHT22;387;48.772;9.186;2023-03-24T18:09:49;12.20;80.00
810;DHT22;387;48.772;9.186;2023-03-24T18:12:19;12.20;80.00
810;DHT22;387;48.772;9.186;2023-03-24T18:14:45;12.20;80.00
810;DHT22;387;48.772;9.186;2023-03-24T18:17:17;12.20;80.00
810;DHT22;387;48.772;9.186;2023-03-24T18:19:43;12.10;80.30
810;DHT22;387;48.772;9.186;2023-03-24T18:22:09;12.00;80.20
810;DHT22;387;48.772;9.186;2023-03-24T18:24:37;12.00;80.00
810;DHT22;387;48.772;9.186;2023-03-24T18:27:06;12.00;80.20
810;DHT22;387;48.772;9.186;2023-03-24T18:29:35;12.00;79.70
810;DHT22;387;48.772;9.186;2023-03-24T18:32:01;12.00;79.70
810;DHT22;387;48.772;9.186;2023-03-24T18:34:27;12.00;79.00
810;DHT22;387;48.772;9.186;2023-03-24T18:36:55;12.00;79.20
810;DHT22;387;48.772;9.186;2023-03-24T18:39:21;12.00;79.00
810;DHT22;387;48.772;9.186;2023-03-24T18:41:47;12.00;79.00
810;DHT22;387;48.772;9.186;2023-03-24T18:44:13;11.90;79.00
810;DHT22;387;48.772;9.186;2023-03-24T18:46:40;11.90;79.00
810;DHT22;387;48.772;9.186;2023-03-24T18:49:06;11.90;79.00
810;DHT22;387;48.772;9.186;2023-03-24T18:51:32;12.00;78.90
810;DHT22;387;48.772;9.186;2023-03-24T18:53:59;12.00;78.60
810;DHT22;387;48.772;9.186;2023-03-24T18:56:28;11.90;78.30
810;DHT22;387;48.772;9.186;2023-03-24T18:58:54;11.90;78.40
810;DHT22;387;48.772;9.186;2023-03-24T19:01:20;11.90;78.00
810;DHT22;387;48.772;9.186;2023-03-24T19:03:51;11.90;78.00
810;DHT22;387;48.772;9.186;2023-03-24T19:06:18;11.90;77.70
810;DHT22;387;48.772;9.186;2023-03-24T19:08:47;11.90;77.80
810;DHT22;387;48.772;9.186;2023-03-24T19:11:14;11.80;77.70
810;DHT22;387;48.772;9.186;2023-03-24T19:13:40;11.80;77.70
810;DHT22;387;48.772;9.186;2023-03-24T19:16:10;11.80;77.60
810;DHT22;387;48.772;9.186;2023-03-24T19:18:37;11.80;77.70
810;DHT22;387;48.772;9.186;2023-03-24T19:21:03;11.80;77.40
810;DHT22;387;48.772;9.186;2023-03-24T19:23:29;11.80;77.30
810;DHT22;387;48.772;9.186;2023-03-24T19:25:55;11.80;77.30
810;DHT22;387;48.772;9.186;2023-03-24T19:28:26;11.80;77.10
810;DHT22;387;48.772;9.186;2023-03-24T19:30:53;11.80;77.10
810;DHT22;387;48.772;9.186;2023-03-24T19:33:22;11.70;77.30
810;DHT22;387;48.772;9.186;2023-03-24T19:35:48;11.70;77.30
810;DHT22;387;48.772;9.186;2023-03-24T19:38:15;11.70;77.40